Time;durP1;ratioP1;P1;durP2;ratioP2;P2;SDS_P1;SDS_P2;PMS_P1;PMS_P2;Temp;Humidity;BMP_temperature;BMP_pressure;BME280_temperature;BME280_humidity;BME280_pressure;Samples;Min_cycle;Max_cycle;Signal;HPM_P1;HPM_P2
2023/10/19 00:01:23;;;;;;;21.08;11.40;;;;;;;;;;5026834;28;20021;-66
2023/10/19 00:03:49;;;;;;;24.45;11.10;;;;;;;;;;5025828;28;20037;-68
2023/10/19 00:06:14;;;;;;;24.00;11.45;;;;;;;;;;5026571;28;20087;-69
2023/10/19 00:08:43;;;;;;;19.48;11.55;;;;;;;;;;5026062;28;20047;-68
2023/10/19 00:11:09;;;;;;;17.08;10.23;;;;;;;;;;5008055;28;20045;-68
2023/10/19 00:13:38;;;;;;;21.30;11.05;;;;;;;;;;5025097;28;20386;-67
2023/10/19 00:16:16;;;;;;;18.10;11.95;;;;;;;;;;5025067;28;20025;-68
2023/10/19 00:18:52;;;;;;;22.17;11.75;;;;;;;;;;5026374;28;20374;-68
2023/10/19 00:21:20;;;;;;;19.80;11.40;;;;;;;;;;5015546;28;20140;-68
2023/10/19 00:23:51;;;;;;;23.35;11.73;;;;;;;;;;5016318;28;20025;-67
2023/10/19 00:26:20;;;;;;;24.15;10.93;;;;;;;;;;5025273;28;20104;-67
2023/10/19 00:28:53;;;;;;;17.23;11.35;;;;;;;;;;5023514;28;20041;-66
2023/10/19 00:31:20;;;;;;;22.65;10.55;;;;;;;;;;5020073;28;20404;-70
2023/10/19 00:33:45;;;;;;;26.90;11.38;;;;;;;;;;5025842;28;20124;-68
2023/10/19 00:36:13;;;;;;;21.10;11.00;;;;;;;;;;5023391;28;20109;-68
2023/10/19 00:38:39;;;;;;;16.80;10.13;;;;;;;;;;5025411;28;20044;-68
2023/10/19 00:43:37;;;;;;;19.38;10.05;;;;;;;;;;5025498;28;20030;-68
2023/10/19 00:46:04;;;;;;;19.20;10.50;;;;;;;;;;5026111;28;20112;-68
2023/10/19 00:48:32;;;;;;;22.83;11.50;;;;;;;;;;5026453;28;20020;-68
2023/10/19 00:51:09;;;;;;;23.55;11.40;;;;;;;;;;5022715;28;20021;-67
2023/10/19 00:53:35;;;;;;;18.98;10.75;;;;;;;;;;5025143;28;20022;-69
2023/10/19 00:56:02;;;;;;;22.58;11.52;;;;;;;;;;5024079;28;20025;-69
2023/10/19 00:58:30;;;;;;;20.50;10.13;;;;;;;;;;5024931;28;20079;-68
2023/10/19 01:00:55;;;;;;;20.92;11.85;;;;;;;;;;5024795;28;20088;-68
2023/10/19 01:03:20;;;;;;;20.08;11.30;;;;;;;;;;5024005;28;20105;-66
2023/10/19 01:05:48;;;;;;;20.73;10.77;;;;;;;;;;5024051;28;20608;-67
2023/10/19 01:08:23;;;;;;;20.75;10.60;;;;;;;;;;5023645;28;20076;-68
2023/10/19 01:10:52;;;;;;;22.08;10.68;;;;;;;;;;5025613;28;20495;-69
2023/10/19 01:13:17;;;;;;;22.65;10.80;;;;;;;;;;5025330;28;20037;-68
2023/10/19 01:15:42;;;;;;;17.40;10.05;;;;;;;;;;5025233;28;20048;-67
2023/10/19 01:18:10;;;;;;;24.98;10.73;;;;;;;;;;5024229;28;20411;-70
2023/10/19 01:20:50;;;;;;;24.52;11.75;;;;;;;;;;5025126;28;20511;-69
2023/10/19 01:23:23;;;;;;;21.52;11.07;;;;;;;;;;5018013;28;20052;-70
2023/10/19 01:28:18;;;;;;;17.75;9.98;;;;;;;;;;5025482;28;20028;-68
2023/10/19 01:30:51;;;;;;;21.20;10.90;;;;;;;;;;5025657;28;20151;-67
2023/10/19 01:33:16;;;;;;;19.83;10.05;;;;;;;;;;5025763;28;20025;-66
2023/10/19 01:38:30;;;;;;;17.27;9.85;;;;;;;;;;5010012;28;20075;-73
2023/10/19 01:40:59;;;;;;;21.15;10.07;;;;;;;;;;5017202;28;20026;-71
2023/10/19 01:43:25;;;;;;;27.52;9.93;;;;;;;;;;5021683;28;20468;-71
2023/10/19 01:45:56;;;;;;;19.45;9.98;;;;;;;;;;5023858;28;20401;-71
2023/10/19 01:48:33;;;;;;;15.98;9.75;;;;;;;;;;5013396;28;20101;-70
2023/10/19 01:51:04;;;;;;;23.33;10.10;;;;;;;;;;5025840;28;20245;-71
2023/10/19 01:53:30;;;;;;;14.95;9.18;;;;;;;;;;5035088;28;20012;-71
2023/10/19 01:55:58;;;;;;;20.23;10.00;;;;;;;;;;5029002;28;20014;-71
2023/10/19 01:58:25;;;;;;;18.42;9.23;;;;;;;;;;5031308;28;20040;-70
2023/10/19 02:00:52;;;;;;;18.15;10.43;;;;;;;;;;5038520;28;20384;-70
2023/10/19 02:03:17;;;;;;;20.27;10.70;;;;;;;;;;5024304;28;20021;-71
2023/10/19 02:05:43;;;;;;;18.92;9.90;;;;;;;;;;5037304;28;20550;-73
2023/10/19 02:08:08;;;;;;;21.88;9.65;;;;;;;;;;5046440;28;20028;-70
2023/10/19 02:10:40;;;;;;;17.27;10.00;;;;;;;;;;5031422;28;20511;-71
2023/10/19 02:13:06;;;;;;;17.45;10.48;;;;;;;;;;5046498;28;20013;-70
2023/10/19 02:15:34;;;;;;;21.40;10.65;;;;;;;;;;5019680;28;20032;-69
2023/10/19 02:18:01;;;;;;;17.60;9.82;;;;;;;;;;5030209;28;20108;-71
2023/10/19 02:20:26;;;;;;;20.30;11.93;;;;;;;;;;5042327;28;20058;-70
2023/10/19 02:22:52;;;;;;;19.60;10.85;;;;;;;;;;5033704;28;20668;-71
2023/10/19 02:25:17;;;;;;;24.48;10.80;;;;;;;;;;5037467;28;20009;-72
2023/10/19 02:27:44;;;;;;;37.92;11.43;;;;;;;;;;5036473;28;20116;-69
2023/10/19 02:30:11;;;;;;;19.45;10.57;;;;;;;;;;5034511;28;20021;-71
2023/10/19 02:32:36;;;;;;;20.88;11.45;;;;;;;;;;5029803;28;20033;-66
2023/10/19 02:35:02;;;;;;;21.73;11.52;;;;;;;;;;5029881;28;20164;-70
2023/10/19 02:37:28;;;;;;;21.77;12.27;;;;;;;;;;5039016;28;20039;-69
2023/10/19 02:39:53;;;;;;;21.02;12.18;;;;;;;;;;5030372;28;20408;-69
2023/10/19 02:42:18;;;;;;;22.10;11.43;;;;;;;;;;5042026;28;20021;-70
2023/10/19 02:44:43;;;;;;;21.05;11.38;;;;;;;;;;5030034;28;20021;-72
2023/10/19 02:47:09;;;;;;;22.70;12.75;;;;;;;;;;5033848;28;20067;-70
2023/10/19 02:49:39;;;;;;;21.25;11.23;;;;;;;;;;5036525;28;20013;-70
2023/10/19 02:52:04;;;;;;;23.13;12.05;;;;;;;;;;5026985;28;20456;-71
2023/10/19 02:54:32;;;;;;;22.55;12.13;;;;;;;;;;5028343;28;20047;-71
2023/10/19 02:56:58;;;;;;;27.38;11.65;;;;;;;;;;5035042;28;20036;-70
2023/10/19 02:59:24;;;;;;;23.77;13.20;;;;;;;;;;5041489;28;20096;-71
2023/10/19 03:02:01;;;;;;;23.77;12.45;;;;;;;;;;5029707;28;20486;-71
2023/10/19 03:04:28;;;;;;;25.55;12.98;;;;;;;;;;5022599;28;20012;-70
2023/10/19 03:06:56;;;;;;;26.98;12.85;;;;;;;;;;5033389;28;20119;-70
2023/10/19 03:09:37;;;;;;;22.02;12.77;;;;;;;;;;5031410;28;20389;-71
2023/10/19 03:12:04;;;;;;;22.70;12.70;;;;;;;;;;5033246;28;20120;-71
2023/10/19 03:14:29;;;;;;;26.25;13.00;;;;;;;;;;5029234;28;20480;-70
2023/10/19 03:16:55;;;;;;;23.60;13.93;;;;;;;;;;5038088;28;20021;-70
2023/10/19 03:19:20;;;;;;;22.50;12.77;;;;;;;;;;5033169;28;20498;-69
2023/10/19 03:21:49;;;;;;;22.80;12.85;;;;;;;;;;5030340;28;20350;-69
2023/10/19 03:24:35;;;;;;;27.03;13.73;;;;;;;;;;5028669;28;20017;-69
2023/10/19 03:27:12;;;;;;;20.80;12.85;;;;;;;;;;5025844;28;20029;-69
2023/10/19 03:29:38;;;;;;;20.67;12.60;;;;;;;;;;5040348;28;20047;-71
2023/10/19 03:32:05;;;;;;;24.88;13.02;;;;;;;;;;5028409;28;20018;-71
2023/10/19 03:34:32;;;;;;;27.85;13.23;;;;;;;;;;5028941;28;20029;-67
2023/10/19 03:37:02;;;;;;;29.45;13.57;;;;;;;;;;5028797;28;20104;-71
2023/10/19 03:39:27;;;;;;;30.85;14.18;;;;;;;;;;5037136;28;20465;-69
2023/10/19 03:41:53;;;;;;;24.42;13.52;;;;;;;;;;5038651;28;20024;-70
2023/10/19 03:44:24;;;;;;;27.90;14.05;;;;;;;;;;5036889;28;20580;-70
2023/10/19 03:46:53;;;;;;;26.20;15.23;;;;;;;;;;5040375;28;20252;-71
2023/10/19 03:49:22;;;;;;;28.80;14.40;;;;;;;;;;5030739;28;20025;-71
2023/10/19 03:52:02;;;;;;;;;;;;;;;;;;5044595;28;20025;-68
2023/10/19 03:54:28;;;;;;;24.27;13.20;;;;;;;;;;5022413;28;19912;-70
2023/10/19 03:56:56;;;;;;;29.50;12.80;;;;;;;;;;5009930;28;20446;-69
2023/10/19 03:59:22;;;;;;;30.20;14.30;;;;;;;;;;5032593;28;20013;-70
2023/10/19 04:01:47;;;;;;;29.63;14.73;;;;;;;;;;5036042;28;20373;-68
2023/10/19 04:04:13;;;;;;;27.58;14.75;;;;;;;;;;5038091;28;20018;-70
2023/10/19 04:06:40;;;;;;;26.33;13.63;;;;;;;;;;5038437;28;20025;-70
2023/10/19 04:09:05;;;;;;;24.65;14.15;;;;;;;;;;5028955;28;20389;-70
2023/10/19 04:11:47;;;;;;;29.20;14.68;;;;;;;;;;5034686;28;20014;-71
2023/10/19 04:14:15;;;;;;;26.77;13.75;;;;;;;;;;5030340;28;20500;-71
2023/10/19 04:16:43;;;;;;;23.77;13.07;;;;;;;;;;5031549;28;20013;-70
2023/10/19 04:19:09;;;;;;;22.80;13.02;;;;;;;;;;5036712;28;20049;-68
2023/10/19 04:21:38;;;;;;;21.98;13.27;;;;;;;;;;5031044;28;20095;-69
2023/10/19 04:24:04;;;;;;;29.77;14.57;;;;;;;;;;5028121;28;20142;-70
2023/10/19 04:26:36;;;;;;;23.13;13.07;;;;;;;;;;5027586;28;20052;-70
2023/10/19 04:29:09;;;;;;;24.83;13.40;;;;;;;;;;5035218;28;20262;-67
2023/10/19 04:31:36;;;;;;;29.30;14.40;;;;;;;;;;5029131;28;20013;-69
2023/10/19 04:34:07;;;;;;;24.92;13.80;;;;;;;;;;5028527;28;20037;-69
2023/10/19 04:36:33;;;;;;;30.38;13.85;;;;;;;;;;5018941;28;20045;-69
2023/10/19 04:38:59;;;;;;;27.58;14.55;;;;;;;;;;5030304;28;20028;-69
2023/10/19 04:41:27;;;;;;;26.35;13.73;;;;;;;;;;5020384;28;20021;-70
2023/10/19 04:43:52;;;;;;;31.83;13.77;;;;;;;;;;5038911;28;20025;-71
2023/10/19 04:46:18;;;;;;;28.45;14.57;;;;;;;;;;5037987;28;20017;-69
2023/10/19 04:48:44;;;;;;;36.53;15.70;;;;;;;;;;5026611;28;20048;-69
2023/10/19 04:51:12;;;;;;;30.00;14.85;;;;;;;;;;5029199;28;20424;-70
2023/10/19 04:53:38;;;;;;;37.55;15.57;;;;;;;;;;5030965;28;20051;-70
2023/10/19 04:56:08;;;;;;;38.30;16.38;;;;;;;;;;5027272;28;20487;-71
2023/10/19 04:58:34;;;;;;;27.08;15.00;;;;;;;;;;5028989;28;20041;-69
2023/10/19 05:00:59;;;;;;;27.63;15.43;;;;;;;;;;5025980;28;20135;-70
2023/10/19 05:03:25;;;;;;;32.33;15.52;;;;;;;;;;5028129;28;20056;-71
2023/10/19 05:05:51;;;;;;;33.38;15.73;;;;;;;;;;5033927;28;20075;-69
2023/10/19 05:08:16;;;;;;;28.40;15.27;;;;;;;;;;5036903;28;20017;-69
2023/10/19 05:10:42;;;;;;;25.27;14.70;;;;;;;;;;5027956;28;20032;-69
2023/10/19 05:13:07;;;;;;;31.73;16.48;;;;;;;;;;5027568;28;20487;-70
2023/10/19 05:15:34;;;;;;;28.05;15.43;;;;;;;;;;5026851;28;20033;-68
2023/10/19 05:17:59;;;;;;;29.70;15.38;;;;;;;;;;5035304;28;20503;-71
2023/10/19 05:20:25;;;;;;;28.38;15.80;;;;;;;;;;5032738;28;20025;-67
2023/10/19 05:22:50;;;;;;;29.83;15.65;;;;;;;;;;5023494;28;20048;-69
2023/10/19 05:25:16;;;;;;;37.15;15.95;;;;;;;;;;5030361;28;20017;-69
2023/10/19 05:27:42;;;;;;;35.10;16.13;;;;;;;;;;5029439;28;20152;-69
2023/10/19 05:30:10;;;;;;;33.53;16.27;;;;;;;;;;5037445;28;20018;-70
2023/10/19 05:32:35;;;;;;;35.47;16.23;;;;;;;;;;5033857;28;20084;-70
2023/10/19 05:35:04;;;;;;;31.95;15.88;;;;;;;;;;5018099;28;20033;-69
2023/10/19 05:37:31;;;;;;;31.27;14.18;;;;;;;;;;5033732;28;20132;-68
2023/10/19 05:39:57;;;;;;;35.05;16.77;;;;;;;;;;5023500;28;20136;-68
2023/10/19 05:42:22;;;;;;;34.60;16.58;;;;;;;;;;5023400;28;20083;-70
2023/10/19 05:44:47;;;;;;;33.88;16.60;;;;;;;;;;5025187;28;20586;-68
2023/10/19 05:47:12;;;;;;;34.15;16.77;;;;;;;;;;5023238;28;20040;-68
2023/10/19 05:49:38;;;;;;;38.70;17.40;;;;;;;;;;5026602;28;20083;-70
2023/10/19 05:52:03;;;;;;;29.30;16.42;;;;;;;;;;5021528;28;20479;-70
2023/10/19 05:54:28;;;;;;;34.78;16.73;;;;;;;;;;5022667;28;20025;-68
2023/10/19 05:56:54;;;;;;;32.15;16.35;;;;;;;;;;5024993;28;20029;-69
2023/10/19 05:59:19;;;;;;;45.80;17.45;;;;;;;;;;5026585;28;20048;-68
2023/10/19 06:01:46;;;;;;;34.05;17.50;;;;;;;;;;5022048;28;20025;-71
2023/10/19 06:04:12;;;;;;;29.70;16.75;;;;;;;;;;5023648;28;20108;-70
2023/10/19 06:06:38;;;;;;;36.85;18.40;;;;;;;;;;5026645;28;20037;-69
2023/10/19 06:09:04;;;;;;;32.03;17.55;;;;;;;;;;5023244;28;20025;-68
2023/10/19 06:11:32;;;;;;;44.13;18.75;;;;;;;;;;5021393;28;20033;-67
2023/10/19 06:13:58;;;;;;;30.83;15.60;;;;;;;;;;5026128;28;20041;-68
2023/10/19 06:16:23;;;;;;;31.30;15.88;;;;;;;;;;5025738;28;20026;-66
2023/10/19 06:18:49;;;;;;;34.15;16.80;;;;;;;;;;5028362;28;20421;-67
2023/10/19 06:21:19;;;;;;;29.50;15.88;;;;;;;;;;5022979;28;20111;-69
2023/10/19 06:23:44;;;;;;;31.70;17.35;;;;;;;;;;5024778;28;20037;-68
2023/10/19 06:26:11;;;;;;;32.25;15.43;;;;;;;;;;5027452;28;20021;-68
2023/10/19 06:28:38;;;;;;;32.22;17.13;;;;;;;;;;5024538;28;21418;-69
2023/10/19 06:31:04;;;;;;;28.58;15.68;;;;;;;;;;5026034;28;20032;-70
2023/10/19 06:33:33;;;;;;;36.03;16.50;;;;;;;;;;5025666;28;20025;-69
2023/10/19 06:35:59;;;;;;;27.30;16.15;;;;;;;;;;5021997;28;20099;-69
2023/10/19 06:38:24;;;;;;;31.85;17.13;;;;;;;;;;5005370;28;20020;-69
2023/10/19 06:40:49;;;;;;;30.48;15.93;;;;;;;;;;5020161;28;20030;-72
2023/10/19 06:43:15;;;;;;;30.25;17.23;;;;;;;;;;5026173;28;20151;-68
2023/10/19 06:45:40;;;;;;;34.65;17.85;;;;;;;;;;5023352;28;20098;-69
2023/10/19 06:48:06;;;;;;;32.83;16.80;;;;;;;;;;5024298;28;20067;-70
2023/10/19 06:50:31;;;;;;;34.90;16.75;;;;;;;;;;5022347;28;20037;-68
2023/10/19 06:52:57;;;;;;;32.75;16.58;;;;;;;;;;5021548;28;20409;-70
2023/10/19 06:55:25;;;;;;;30.77;16.45;;;;;;;;;;5024738;28;20445;-69
2023/10/19 06:57:52;;;;;;;32.88;17.30;;;;;;;;;;5021430;28;20443;-70
2023/10/19 07:00:42;;;;;;;29.98;16.00;;;;;;;;;;5025030;28;20366;-69
2023/10/19 07:03:06;;;;;;;;;;;;;;;;;;5024937;28;20057;-67
2023/10/19 07:05:32;;;;;;;25.80;16.03;;;;;;;;;;5006625;28;20007;-68
2023/10/19 07:07:59;;;;;;;32.20;17.13;;;;;;;;;;5024960;28;20258;-68
2023/10/19 07:10:25;;;;;;;31.25;16.60;;;;;;;;;;5024730;28;20022;-68
2023/10/19 07:12:51;;;;;;;30.75;17.10;;;;;;;;;;5024051;28;20112;-69
2023/10/19 07:15:21;;;;;;;35.63;16.27;;;;;;;;;;5024916;28;20026;-68
2023/10/19 07:17:47;;;;;;;30.35;16.60;;;;;;;;;;5025365;28;20025;-70
2023/10/19 07:20:25;;;;;;;29.60;15.75;;;;;;;;;;5025423;28;20670;-69
2023/10/19 07:22:54;;;;;;;31.40;16.25;;;;;;;;;;5024288;28;20105;-72
2023/10/19 07:25:21;;;;;;;31.48;16.58;;;;;;;;;;5023736;28;20017;-68
2023/10/19 07:27:47;;;;;;;34.78;16.95;;;;;;;;;;5020893;28;20056;-71
2023/10/19 07:30:15;;;;;;;33.65;17.17;;;;;;;;;;5020807;28;20032;-68
2023/10/19 07:32:40;;;;;;;34.00;17.42;;;;;;;;;;5022496;28;20200;-69
2023/10/19 07:35:06;;;;;;;31.83;17.20;;;;;;;;;;5041999;23;20608;-63
2023/10/19 07:37:31;;;;;;;33.40;16.95;;;;;;;;;;5021338;28;20037;-65
2023/10/19 07:39:57;;;;;;;30.85;15.02;;;;;;;;;;5020588;28;20473;-64
2023/10/19 07:42:23;;;;;;;29.83;15.85;;;;;;;;;;5020902;28;20013;-66
2023/10/19 07:44:48;;;;;;;31.63;15.98;;;;;;;;;;5021727;28;20120;-66
2023/10/19 07:47:14;;;;;;;29.17;16.13;;;;;;;;;;5021073;28;20032;-64
2023/10/19 07:49:39;;;;;;;37.55;18.20;;;;;;;;;;5021835;28;20029;-64
2023/10/19 07:52:07;;;;;;;32.15;16.67;;;;;;;;;;5019795;28;20045;-62
2023/10/19 07:54:35;;;;;;;31.00;15.57;;;;;;;;;;5017431;28;20030;-65
2023/10/19 07:57:05;;;;;;;27.00;15.10;;;;;;;;;;5018041;28;20418;-66
2023/10/19 07:59:31;;;;;;;28.75;16.23;;;;;;;;;;5019237;28;20262;-65
2023/10/19 08:01:56;;;;;;;27.95;15.05;;;;;;;;;;5020325;28;20036;-65
2023/10/19 08:04:21;;;;;;;41.65;16.70;;;;;;;;;;5021998;28;20077;-66
2023/10/19 08:06:47;;;;;;;32.75;15.95;;;;;;;;;;5021195;28;20036;-65
2023/10/19 08:09:12;;;;;;;28.75;15.48;;;;;;;;;;5019357;28;20037;-65
2023/10/19 08:11:37;;;;;;;31.10;15.48;;;;;;;;;;5018536;28;20037;-66
2023/10/19 08:14:03;;;;;;;27.35;16.17;;;;;;;;;;5021066;28;20033;-66
2023/10/19 08:16:28;;;;;;;29.20;16.17;;;;;;;;;;5020695;28;20021;-64
2023/10/19 08:18:54;;;;;;;30.58;15.88;;;;;;;;;;5019827;28;20021;-65
2023/10/19 08:21:19;;;;;;;32.67;15.07;;;;;;;;;;5019663;28;20027;-66
2023/10/19 08:23:45;;;;;;;39.25;15.20;;;;;;;;;;5022456;28;20053;-61
2023/10/19 08:26:10;;;;;;;27.15;15.23;;;;;;;;;;5020851;28;20031;-66
2023/10/19 08:28:36;;;;;;;26.20;14.02;;;;;;;;;;5021997;28;20044;-62
2023/10/19 08:31:02;;;;;;;23.88;13.50;;;;;;;;;;5018445;28;20025;-66
2023/10/19 08:33:29;;;;;;;26.10;14.00;;;;;;;;;;5002920;28;20033;-65
2023/10/19 08:35:55;;;;;;;26.73;13.30;;;;;;;;;;5018948;28;20040;-64
2023/10/19 08:38:21;;;;;;;25.10;13.45;;;;;;;;;;5021389;28;20055;-65
2023/10/19 08:40:48;;;;;;;23.17;12.90;;;;;;;;;;5019521;28;20108;-65
2023/10/19 08:43:13;;;;;;;24.10;14.32;;;;;;;;;;5019568;28;20033;-65
2023/10/19 08:45:39;;;;;;;26.90;14.15;;;;;;;;;;5020528;28;20043;-64
2023/10/19 08:48:04;;;;;;;24.30;12.93;;;;;;;;;;5019958;28;20160;-62
2023/10/19 08:50:30;;;;;;;26.33;13.48;;;;;;;;;;5019388;28;20136;-66
2023/10/19 08:52:57;;;;;;;22.60;12.82;;;;;;;;;;5019960;28;20033;-64
2023/10/19 08:55:22;;;;;;;26.98;14.10;;;;;;;;;;5019932;28;20055;-65
2023/10/19 08:57:51;;;;;;;22.00;12.88;;;;;;;;;;5018374;28;20025;-66
2023/10/19 09:00:19;;;;;;;21.85;13.68;;;;;;;;;;5019421;28;20056;-64
2023/10/19 09:02:47;;;;;;;21.55;13.30;;;;;;;;;;5019105;28;20022;-63
2023/10/19 09:08:09;;;;;;;23.98;13.43;;;;;;;;;;5008039;28;20251;-64
2023/10/19 09:10:36;;;;;;;26.08;12.60;;;;;;;;;;5018086;28;20045;-64
2023/10/19 09:13:02;;;;;;;22.65;12.73;;;;;;;;;;5020259;28;20112;-63
2023/10/19 09:15:30;;;;;;;36.97;14.85;;;;;;;;;;5019493;28;20108;-65
2023/10/19 09:17:55;;;;;;;56.03;16.33;;;;;;;;;;5019810;28;20017;-64
2023/10/19 09:20:27;;;;;;;37.03;14.25;;;;;;;;;;5020782;28;20033;-64
2023/10/19 09:22:56;;;;;;;26.33;13.60;;;;;;;;;;5000498;28;20080;-62
2023/10/19 09:25:22;;;;;;;23.75;11.50;;;;;;;;;;5018879;28;20088;-66
2023/10/19 09:27:48;;;;;;;24.58;12.90;;;;;;;;;;5021160;28;20105;-66
2023/10/19 09:30:18;;;;;;;21.35;13.48;;;;;;;;;;5020565;28;20128;-66
2023/10/19 09:32:45;;;;;;;20.88;12.32;;;;;;;;;;5019836;28;20061;-67
2023/10/19 09:35:15;;;;;;;25.35;12.40;;;;;;;;;;5021258;28;20030;-63
2023/10/19 09:37:41;;;;;;;25.45;12.35;;;;;;;;;;5018612;28;20087;-66
2023/10/19 09:40:11;;;;;;;19.70;12.10;;;;;;;;;;5018584;28;20076;-67
2023/10/19 09:42:37;;;;;;;20.83;11.70;;;;;;;;;;5001492;28;20025;-64
2023/10/19 09:45:05;;;;;;;20.70;12.43;;;;;;;;;;5018577;28;20093;-66
2023/10/19 09:47:35;;;;;;;19.55;11.55;;;;;;;;;;5019244;28;20060;-65
2023/10/19 09:50:01;;;;;;;25.95;11.77;;;;;;;;;;5018882;28;20059;-66
2023/10/19 09:52:27;;;;;;;20.05;12.00;;;;;;;;;;5018134;28;20041;-65
2023/10/19 09:54:52;;;;;;;20.02;12.20;;;;;;;;;;5019760;28;20471;-63
2023/10/19 09:57:22;;;;;;;18.50;12.18;;;;;;;;;;5020443;28;20013;-66
2023/10/19 09:59:50;;;;;;;25.20;13.38;;;;;;;;;;5021772;28;20028;-68
2023/10/19 10:02:17;;;;;;;16.45;11.10;;;;;;;;;;5019468;28;20140;-63
2023/10/19 10:04:45;;;;;;;30.55;16.02;;;;;;;;;;5019973;28;20029;-65
2023/10/19 10:07:10;;;;;;;19.67;11.48;;;;;;;;;;5001348;28;20116;-65
2023/10/19 10:09:43;;;;;;;24.33;12.82;;;;;;;;;;5021856;28;20113;-63
2023/10/19 10:12:23;;;;;;;22.27;12.38;;;;;;;;;;5021041;28;20021;-66
2023/10/19 10:14:55;;;;;;;20.90;11.90;;;;;;;;;;5024017;28;20032;-67
2023/10/19 10:17:22;;;;;;;24.48;11.38;;;;;;;;;;5024077;28;20393;-66
2023/10/19 10:19:48;;;;;;;22.67;12.35;;;;;;;;;;5023727;28;20024;-66
2023/10/19 10:22:16;;;;;;;21.17;11.60;;;;;;;;;;5023250;28;20022;-66
2023/10/19 10:24:42;;;;;;;23.73;12.80;;;;;;;;;;5024470;28;20111;-66
2023/10/19 10:27:07;;;;;;;26.67;13.18;;;;;;;;;;5023134;28;20030;-62
2023/10/19 10:29:33;;;;;;;24.10;13.38;;;;;;;;;;5022195;28;20037;-66
2023/10/19 10:31:59;;;;;;;25.05;12.27;;;;;;;;;;5020300;28;20043;-65
2023/10/19 10:34:37;;;;;;;27.95;13.45;;;;;;;;;;5023125;28;20029;-66
2023/10/19 10:37:07;;;;;;;23.40;13.43;;;;;;;;;;5023601;28;20789;-66
2023/10/19 10:39:35;;;;;;;23.17;13.73;;;;;;;;;;5023181;28;20037;-65
2023/10/19 10:42:05;;;;;;;19.73;11.80;;;;;;;;;;5022609;28;20055;-65
2023/10/19 10:44:40;;;;;;;19.55;12.02;;;;;;;;;;5024109;28;20024;-65
2023/10/19 10:47:08;;;;;;;18.15;11.20;;;;;;;;;;5023088;28;20040;-65
2023/10/19 10:49:33;;;;;;;19.87;13.10;;;;;;;;;;5022859;28;20023;-64
2023/10/19 10:51:58;;;;;;;20.67;12.57;;;;;;;;;;5021981;28;20480;-65
2023/10/19 10:54:23;;;;;;;25.55;11.82;;;;;;;;;;5024035;28;20465;-64
2023/10/19 10:56:49;;;;;;;22.00;13.27;;;;;;;;;;5022749;28;20112;-65
2023/10/19 10:59:14;;;;;;;22.58;11.23;;;;;;;;;;5024254;28;20044;-67
2023/10/19 11:01:41;;;;;;;21.45;13.02;;;;;;;;;;5020923;28;20381;-66
2023/10/19 11:04:10;;;;;;;26.15;16.27;;;;;;;;;;5018361;28;20121;-71
2023/10/19 11:06:35;;;;;;;;;;;;;;;;;;5022384;28;20018;-66
2023/10/19 11:09:09;;;;;;;21.13;11.93;;;;;;;;;;5023966;28;20003;-66
2023/10/19 11:11:38;;;;;;;21.35;11.45;;;;;;;;;;5021970;28;20021;-62
2023/10/19 11:14:11;;;;;;;19.83;11.25;;;;;;;;;;5023944;28;20819;-67
2023/10/19 11:16:37;;;;;;;19.17;11.65;;;;;;;;;;5024040;28;20029;-64
2023/10/19 11:19:02;;;;;;;23.05;12.88;;;;;;;;;;5026768;28;20010;-66
2023/10/19 11:21:28;;;;;;;20.10;11.98;;;;;;;;;;5022689;28;20469;-67
2023/10/19 11:23:53;;;;;;;19.27;11.77;;;;;;;;;;5025153;28;20022;-64
2023/10/19 11:26:22;;;;;;;25.05;12.43;;;;;;;;;;5023358;28;20010;-66
2023/10/19 11:28:56;;;;;;;17.35;11.27;;;;;;;;;;5022015;28;20033;-66
2023/10/19 11:31:23;;;;;;;25.65;11.60;;;;;;;;;;5021728;28;20103;-64
2023/10/19 11:33:49;;;;;;;19.70;11.48;;;;;;;;;;5023474;28;20087;-66
2023/10/19 11:36:15;;;;;;;21.20;11.55;;;;;;;;;;5022279;28;20432;-62
2023/10/19 11:38:43;;;;;;;17.75;11.95;;;;;;;;;;5023185;28;20568;-65
2023/10/19 11:41:09;;;;;;;;;;;;;;;;;;5022406;28;20481;-66
2023/10/19 11:43:34;;;;;;;19.23;11.50;;;;;;;;;;5023268;28;20525;-67
2023/10/19 11:46:00;;;;;;;21.65;12.63;;;;;;;;;;5021560;28;20527;-66
2023/10/19 11:48:25;;;;;;;27.67;11.88;;;;;;;;;;5022845;28;20047;-73
2023/10/19 11:50:51;;;;;;;19.73;11.93;;;;;;;;;;5019924;28;20488;-72
2023/10/19 11:53:16;;;;;;;22.33;11.07;;;;;;;;;;5020335;28;20589;-71
2023/10/19 11:55:42;;;;;;;18.35;10.13;;;;;;;;;;5021962;28;20048;-69
2023/10/19 11:58:11;;;;;;;20.73;11.65;;;;;;;;;;5022286;28;20123;-69
2023/10/19 12:00:37;;;;;;;19.00;11.13;;;;;;;;;;5027465;28;20021;-73
2023/10/19 12:03:03;;;;;;;17.58;10.57;;;;;;;;;;5022972;28;20091;-69
2023/10/19 12:05:28;;;;;;;14.88;10.07;;;;;;;;;;5021503;28;20489;-68
2023/10/19 12:07:57;;;;;;;19.27;10.95;;;;;;;;;;5022827;28;20036;-69
2023/10/19 12:10:29;;;;;;;17.38;10.50;;;;;;;;;;5022775;28;20013;-69
2023/10/19 12:12:56;;;;;;;23.55;12.13;;;;;;;;;;5022263;28;20063;-69
2023/10/19 12:15:22;;;;;;;21.20;11.95;;;;;;;;;;5020274;28;20096;-69
2023/10/19 12:17:49;;;;;;;25.55;12.80;;;;;;;;;;5022353;28;20029;-69
2023/10/19 12:20:14;;;;;;;22.13;12.15;;;;;;;;;;5021874;28;20564;-70
2023/10/19 12:22:40;;;;;;;17.20;10.88;;;;;;;;;;5018849;28;20108;-72
2023/10/19 12:25:05;;;;;;;28.08;13.20;;;;;;;;;;5022984;28;20033;-69
2023/10/19 12:27:31;;;;;;;17.25;11.38;;;;;;;;;;5021697;28;20104;-70
2023/10/19 12:29:56;;;;;;;20.52;11.40;;;;;;;;;;5022798;28;20554;-73
2023/10/19 12:32:21;;;;;;;23.80;11.50;;;;;;;;;;5017505;28;20029;-71
2023/10/19 12:34:50;;;;;;;17.73;11.70;;;;;;;;;;5020765;28;20060;-72
2023/10/19 12:37:17;;;;;;;16.95;10.68;;;;;;;;;;5020694;28;20544;-69
2023/10/19 12:39:44;;;;;;;17.20;10.70;;;;;;;;;;5023703;28;20057;-72
2023/10/19 12:42:10;;;;;;;18.65;9.65;;;;;;;;;;5019998;28;20022;-73
2023/10/19 12:44:44;;;;;;;28.45;12.85;;;;;;;;;;5027404;28;20368;-71
2023/10/19 12:47:12;;;;;;;28.02;13.07;;;;;;;;;;5025197;28;20029;-71
2023/10/19 12:49:38;;;;;;;20.73;12.18;;;;;;;;;;5027648;28;20026;-72
2023/10/19 12:52:03;;;;;;;18.80;11.75;;;;;;;;;;5028134;28;20114;-72
2023/10/19 12:54:29;;;;;;;17.25;10.43;;;;;;;;;;5029415;28;20396;-70
2023/10/19 12:56:54;;;;;;;20.20;11.30;;;;;;;;;;5027085;28;20040;-71
2023/10/19 12:59:19;;;;;;;19.05;11.30;;;;;;;;;;5029436;28;20009;-74
2023/10/19 13:01:48;;;;;;;21.40;12.27;;;;;;;;;;5029348;28;20095;-71
2023/10/19 13:04:23;;;;;;;26.52;13.27;;;;;;;;;;5028989;28;20021;-74
2023/10/19 13:06:48;;;;;;;25.23;14.45;;;;;;;;;;5025871;28;20041;-71
2023/10/19 13:09:15;;;;;;;20.75;13.07;;;;;;;;;;5029161;28;20025;-72
2023/10/19 13:11:43;;;;;;;22.33;11.95;;;;;;;;;;5028245;28;20033;-71
2023/10/19 13:14:08;;;;;;;24.90;12.23;;;;;;;;;;5027510;28;20021;-70
2023/10/19 13:16:35;;;;;;;24.77;11.65;;;;;;;;;;5028558;28;20030;-72
2023/10/19 13:19:08;;;;;;;23.92;13.05;;;;;;;;;;5028517;28;20044;-68
2023/10/19 13:21:34;;;;;;;24.00;12.25;;;;;;;;;;5013844;28;20010;-69
2023/10/19 13:23:59;;;;;;;18.88;10.52;;;;;;;;;;5028427;28;20109;-68
2023/10/19 13:26:25;;;;;;;21.70;12.60;;;;;;;;;;5010903;28;20543;-70
2023/10/19 13:28:52;;;;;;;22.98;13.60;;;;;;;;;;5027526;28;20028;-72
2023/10/19 13:31:19;;;;;;;24.63;13.80;;;;;;;;;;5028192;28;20045;-73
2023/10/19 13:33:46;;;;;;;27.60;14.15;;;;;;;;;;5010557;28;20021;-71
2023/10/19 13:36:12;;;;;;;22.55;12.52;;;;;;;;;;5038639;23;20045;-70
2023/10/19 13:38:38;;;;;;;21.23;12.00;;;;;;;;;;5008079;28;20480;-70
2023/10/19 13:41:09;;;;;;;20.60;11.82;;;;;;;;;;5024475;28;20021;-69
2023/10/19 13:43:35;;;;;;;19.70;12.45;;;;;;;;;;5027413;28;20044;-71
2023/10/19 13:46:01;;;;;;;17.50;11.30;;;;;;;;;;5028190;28;20013;-70
2023/10/19 13:48:26;;;;;;;23.65;12.52;;;;;;;;;;5031750;28;20091;-71
2023/10/19 13:50:55;;;;;;;23.50;13.93;;;;;;;;;;5009909;28;20064;-70
2023/10/19 13:53:21;;;;;;;20.63;12.85;;;;;;;;;;5033825;28;20075;-71
2023/10/19 13:55:46;;;;;;;23.35;14.48;;;;;;;;;;5017657;28;20033;-71
2023/10/19 13:58:12;;;;;;;24.50;13.68;;;;;;;;;;5041830;28;20021;-68
2023/10/19 14:00:40;;;;;;;27.95;13.00;;;;;;;;;;5040563;28;20100;-71
2023/10/19 14:03:09;;;;;;;24.23;13.20;;;;;;;;;;5033690;28;20489;-73
2023/10/19 14:05:48;;;;;;;31.40;16.15;;;;;;;;;;5043776;28;20047;-71
2023/10/19 14:08:13;;;;;;;60.72;32.42;;;;;;;;;;5035031;28;20115;-69
2023/10/19 14:10:41;;;;;;;74.35;36.38;;;;;;;;;;5036884;28;20025;-70
2023/10/19 14:13:06;;;;;;;75.22;40.80;;;;;;;;;;5045716;28;20044;-73
2023/10/19 14:15:33;;;;;;;55.08;30.95;;;;;;;;;;5013536;28;20021;-72
2023/10/19 14:17:59;;;;;;;40.22;23.23;;;;;;;;;;5034583;28;20041;-71
2023/10/19 14:20:24;;;;;;;43.88;19.88;;;;;;;;;;5035573;28;20039;-69
2023/10/19 14:22:50;;;;;;;45.25;17.77;;;;;;;;;;5029889;28;20464;-72
2023/10/19 14:25:15;;;;;;;35.88;16.02;;;;;;;;;;5024661;28;20018;-70
2023/10/19 14:27:41;;;;;;;60.95;21.90;;;;;;;;;;5030588;28;20026;-72
2023/10/19 14:30:13;;;;;;;33.45;18.13;;;;;;;;;;5008654;28;20068;-70